WetterOnline ( https://www.wetteronline.ch )

Wetter aktuell Kappeln

Aktuelles Wetter: Schönhagen (Ostseebad) (2m)

6-stündlich | Neueste Meldungen
Ortszeit Temperatur Wetter
Mi, 22.01. 19:00 3.3° C wolkenlos
Mi, 22.01. 13:00 7.4° C wolkenlos
Mi, 22.01. 7:00 5.8° C wolkig
Mi, 22.01. 1:00 6.5° C bewölkt
Di, 21.01. 19:00 6.3° C bedeckt
Di, 21.01. 13:00 6.8° C bewölkt
Di, 21.01. 7:00 5.7° C bedeckt
Di, 21.01. 1:00 5.6° C bedeckt
Ortszeit Temperatur Wetter
Mi, 22.01. 20:00 3.4° C leicht bewölkt
Mi, 22.01. 19:50 3.4° C leicht bewölkt
Mi, 22.01. 19:40 3.3° C fast wolkenlos
Mi, 22.01. 19:30 3.4° C leicht bewölkt
Mi, 22.01. 19:20 3.4° C leicht bewölkt
Mi, 22.01. 19:10 3.4° C leicht bewölkt
Mi, 22.01. 19:00 3.3° C wolkenlos
Mi, 22.01. 18:30 3.5° C wolkenlos
Mi, 22.01. 18:00 3.9° C wolkenlos
Mi, 22.01. 17:30 4.3° C wolkenlos
Mi, 22.01. 17:00 4.7° C wolkenlos
Ortszeit Relative Feuchte Sichtweite
Mi, 22.01. 19:00 95% 18 km
Mi, 22.01. 13:00 80% 30 km
Mi, 22.01. 7:00 87% 60 km
Mi, 22.01. 1:00 96% 4.5 km
Di, 21.01. 19:00 93% 19 km
Di, 21.01. 13:00 85% 23 km
Di, 21.01. 7:00 82% 29 km
Di, 21.01. 1:00 87% 24 km
Ortszeit Relative Feuchte Sichtweite
Mi, 22.01. 20:00 94% 18 km
Mi, 22.01. 19:50 94% -
Mi, 22.01. 19:40 95% -
Mi, 22.01. 19:30 95% 19 km
Mi, 22.01. 19:20 95% -
Mi, 22.01. 19:10 95% -
Mi, 22.01. 19:00 95% 18 km
Mi, 22.01. 18:30 94% 21 km
Mi, 22.01. 18:00 94% 25 km
Mi, 22.01. 17:30 92% 27 km
Mi, 22.01. 17:00 89% 28 km
Ortszeit Niederschlagsmenge Niederschlagsart
Mi, 22.01. 19:00 0.0 l/m2 in 12 Std. -
Mi, 22.01. 13:00 0.0 l/m2 in 6 Std. -
Mi, 22.01. 7:00 0.5 l/m2 in 12 Std. Regen
Mi, 22.01. 1:00 0.0 l/m2 in 6 Std. -
Di, 21.01. 19:00 0.0 l/m2 in 12 Std. -
Di, 21.01. 13:00 0.0 l/m2 in 6 Std. -
Di, 21.01. 7:00 0.0 l/m2 in 12 Std. -
Di, 21.01. 1:00 0.0 l/m2 in 6 Std. -
Ortszeit Niederschlagsmenge Niederschlagsart
Mi, 22.01. 20:00 0.0 l/m2 in 1 Std. -
Mi, 22.01. 19:50 keine Meldung -
Mi, 22.01. 19:40 keine Meldung -
Mi, 22.01. 19:30 0.0 l/m2 in 1 Std. -
Mi, 22.01. 19:20 keine Meldung -
Mi, 22.01. 19:10 keine Meldung -
Mi, 22.01. 19:00 0.0 l/m2 in 1 Std. -
Mi, 22.01. 18:30 0.0 l/m2 in 1 Std. -
Mi, 22.01. 18:00 0.0 l/m2 in 1 Std. -
Mi, 22.01. 17:30 0.0 l/m2 in 1 Std. -
Mi, 22.01. 17:00 0.0 l/m2 in 1 Std. -
Ortszeit Stärke Spitze Richtung
km/h Bft. km/h Grad Sektor
Mi, 22.01. 19:00 13 3 37 270° W
Mi, 22.01. 13:00 22 4 36 300° NW
Mi, 22.01. 7:00 22 4 43 290° W
Mi, 22.01. 1:00 28 4 44 260° W
Di, 21.01. 19:00 25 4 47 250° W
Di, 21.01. 13:00 30 5 52 240° SW
Di, 21.01. 7:00 29 5 54 260° W
Di, 21.01. 1:00 26 4 43 250° W
Ortszeit Stärke Spitze Richtung
km/h Bft. km/h Grad Sektor
Mi, 22.01. 20:00 11 2 18 290° W
Mi, 22.01. 19:50 11 2 - 290° W
Mi, 22.01. 19:40 11 2 - 290° W
Mi, 22.01. 19:30 11 2 18 280° W
Mi, 22.01. 19:20 11 2 - 280° W
Mi, 22.01. 19:10 11 2 - 280° W
Mi, 22.01. 19:00 13 3 17 270° W
Mi, 22.01. 18:30 14 3 18 270° W
Mi, 22.01. 18:00 11 2 14 260° W
Mi, 22.01. 17:30 13 3 15 270° W
Mi, 22.01. 17:00 9 2 17 270° W
Ortszeit Untergrenze Bedeckung Gattung
total tief tief mittel hoch
Mi, 22.01. 19:00 9000 m 0/8 0/8 - - -
Mi, 22.01. 13:00 - 0/8 0/8 - - -
Mi, 22.01. 7:00 8700 m 8/8 0/8 - - -
Mi, 22.01. 1:00 150 m 7/8 7/8 - - -
Di, 21.01. 19:00 180 m 8/8 8/8 - - -
Di, 21.01. 13:00 480 m 7/8 7/8 - - -
Di, 21.01. 7:00 450 m 8/8 8/8 - - -
Di, 21.01. 1:00 360 m 8/8 8/8 - - -
Ortszeit Bedeckungsgrad in Achtel und Wolkenuntergrenze
Mi, 22.01. 20:00 2(9000m) 3(12000m)
Mi, 22.01. 19:50 2(9000m) 3(12000m)
Mi, 22.01. 19:40 1(9000m) 2(9000m)
Mi, 22.01. 19:30 3(9000m) 6(9000m)
Mi, 22.01. 19:20 3(9000m) 6(9000m)
Mi, 22.01. 19:10 1(9000m) 5(9000m)
Mi, 22.01. 19:00 2(9000m)
Mi, 22.01. 18:30 keine Wolken
Mi, 22.01. 18:00 keine Wolken
Mi, 22.01. 17:30 keine Wolken
Mi, 22.01. 17:00 keine Wolken
Ortszeit Luftdruck NN (hPa) Tendenz (hPa in 3 Std.)
Mi, 22.01. 19:00 1033 + 1,6
Mi, 22.01. 13:00 1032 + 0,3
Mi, 22.01. 7:00 1030 - 0,3
Mi, 22.01. 1:00 1032 - 1,0
Di, 21.01. 19:00 1034 - 0,6
Di, 21.01. 13:00 1036 - 0,9
Di, 21.01. 7:00 1037 - 1,1
Di, 21.01. 1:00 1040 - 1,1
Ortszeit Luftdruck NN (hPa) Tendenz (hPa in 3 Std.)
Mi, 22.01. 20:00 1034 + 1,3
Mi, 22.01. 19:50 1034 keine Meldung
Mi, 22.01. 19:40 1033 keine Meldung
Mi, 22.01. 19:30 1033 + 1,1
Mi, 22.01. 19:20 1033 keine Meldung
Mi, 22.01. 19:10 1033 keine Meldung
Mi, 22.01. 19:00 1033 + 1,6
Mi, 22.01. 18:30 1033 + 1,2
Mi, 22.01. 18:00 1033 + 1,0
Mi, 22.01. 17:30 1033 + 0,7
Mi, 22.01. 17:00 1032 + 0,1
Ortszeit Schneehöhe (cm)
Mi, 22.01. 19:00 0
Mi, 22.01. 13:00 0
Mi, 22.01. 7:00 0
Mi, 22.01. 1:00 0
Di, 21.01. 19:00 0
Di, 21.01. 13:00 0
Di, 21.01. 7:00 0
Di, 21.01. 1:00 0
Ortszeit Schneehöhe (cm)
Mi, 22.01. 20:00 0
Mi, 22.01. 19:50 0
Mi, 22.01. 19:40 0
Mi, 22.01. 19:30 0
Mi, 22.01. 19:20 0
Mi, 22.01. 19:10 0
Mi, 22.01. 19:00 0
Mi, 22.01. 18:30 0
Mi, 22.01. 18:00 0
Mi, 22.01. 17:30 0
Mi, 22.01. 17:00 0
Link zu dieser Seite / Seite empfehlen

Das Wetter in ...